CST,Max TemperatureF,Mean TemperatureF,Min TemperatureF,Max Dew PointF,MeanDew PointF,Min DewpointF,Max Humidity, Mean Humidity, Min Humidity, Max Sea Level PressureIn, Mean Sea Level PressureIn, Min Sea Level PressureIn, Max VisibilityMiles, Mean VisibilityMiles, Min VisibilityMiles, Max Wind SpeedMPH, Mean Wind SpeedMPH, Max Gust SpeedMPH,PrecipitationIn, CloudCover, Events, WindDirDegrees
2013-1-1,23,14,6,16,11,0,92,79,68,30.30,30.23,30.16,10,7,2,14,9,,0.00,4,,315
2013-1-2,33,19,5,28,14,-2,92,79,69,30.29,30.18,30.11,10,10,10,16,9,21,0.01,2,,276
2013-1-3,30,19,8,19,12,3,85,75,64,30.44,30.37,30.29,10,10,10,14,8,,0.00,3,,280
2013-1-4,33,20,6,25,13,0,86,74,59,30.35,30.24,30.13,10,10,10,14,8,,0.00,0,,214
2013-1-5,35,30,26,27,23,18,86,73,55,30.30,30.15,30.06,10,10,10,16,12,22,0.00,2,,258
2013-1-6,42,26,10,27,19,5,85,70,53,30.38,30.28,30.13,10,10,10,21,9,,0.00,0,,237
2013-1-7,48,39,30,30,25,21,75,62,50,30.13,30.02,29.93,10,10,10,26,17,33,0.00,0,,199
2013-1-8,48,38,28,34,27,23,86,69,53,30.19,29.97,29.84,10,10,10,22,12,26,0.00,0,,239
2013-1-9,53,38,24,34,27,21,86,71,44,30.41,30.31,30.20,10,10,10,10,5,,0.00,1,,3
2013-1-10,44,40,37,43,37,30,93,88,70,30.24,29.90,29.67,10,6,0,17,7,23,0.51,8,,146
2013-1-11,57,44,30,41,34,18,87,68,31,29.87,29.57,29.41,10,10,7,39,20,51,0.00,2,,210
2013-1-12,28,22,15,19,10,5,74,58,43,30.14,30.04,29.88,10,10,10,22,14,26,0.00,3,,352
2013-1-13,26,18,10,10,6,1,73,62,43,30.32,30.23,30.11,10,10,10,20,12,25,0.00,1,,343
2013-1-14,28,19,10,12,9,3,85,63,43,30.43,30.34,30.28,10,10,10,9,1,,0.00,1,,107
2013-1-15,33,24,15,18,14,10,86,65,47,30.30,30.22,30.13,10,10,10,8,3,,0.00,2,,228
2013-1-16,55,37,19,30,23,12,80,62,36,30.28,30.11,30.05,10,10,10,17,10,22,0.00,1,,300
2013-1-17,53,38,24,28,25,19,86,62,33,30.49,30.40,30.29,10,10,10,13,7,,0.00,0,,273
2013-1-18,59,46,32,30,27,25,75,56,33,30.33,30.14,30.00,10,10,10,26,14,33,0.00,0,,221
2013-1-19,62,44,26,27,23,19,80,54,22,30.24,30.10,29.99,10,10,10,18,9,23,0.00,0,,305
2013-1-20,48,34,19,30,21,12,86,65,46,30.40,30.26,30.17,10,10,10,21,7,29,0.00,0,,70
2013-1-21,39,26,14,18,14,9,86,63,39,30.39,30.30,30.19,10,10,10,15,7,22,0.00,0,,202
2013-1-22,37,27,17,19,15,10,80,68,48,30.22,30.18,30.14,10,10,10,12,6,,0.00,0,,100
2013-1-23,55,37,19,30,21,12,86,64,36,30.35,30.19,30.10,10,10,9,20,6,25,0.00,0,,217
2013-1-24,26,20,15,16,11,7,79,64,50,30.37,30.24,30.11,10,10,10,17,10,21,0.00,5,,94
2013-1-25,51,35,19,27,22,12,86,61,35,30.26,30.17,30.09,10,10,6,10,3,,0.00,1,,312
2013-1-26,55,42,28,39,30,21,87,65,38,30.19,30.07,29.89,10,9,4,26,12,34,0.01,3,,169
2013-1-27,69,51,32,48,40,27,93,73,40,29.88,29.75,29.65,10,7,2,29,19,33,0.01,3,,198
2013-1-28,75,50,24,48,35,21,100,64,24,29.81,29.68,29.56,10,6,0,32,8,41,0.00,2,,202
2013-1-29,55,42,30,36,30,27,93,79,47,29.71,29.65,29.56,10,8,1,25,16,32,0.00,8,,353
2013-1-30,30,24,19,27,18,12,86,73,59,29.97,29.89,29.72,10,9,1,28,17,33,0.00,4,,303
2013-1-31,26,19,12,19,14,7,80,71,59,30.38,30.16,29.92,10,10,10,18,9,21,0.00,3,,10